createdAt,value
2022-11-27T00:00:09.478Z,99.99
2022-11-27T00:01:09.442Z,99.99
2022-11-27T00:02:09.508Z,99.99
2022-11-27T00:03:09.783Z,99.99
2022-11-27T00:04:09.549Z,99.99
2022-11-27T00:05:09.380Z,99.99
2022-11-27T00:06:09.398Z,99.99
2022-11-27T00:07:09.431Z,99.99
2022-11-27T00:08:10.115Z,99.99
2022-11-27T00:09:09.329Z,99.99
2022-11-27T00:10:09.337Z,99.99
2022-11-27T00:11:09.306Z,99.99
2022-11-27T00:12:09.315Z,99.99
2022-11-27T00:13:09.535Z,99.99
2022-11-27T00:14:09.274Z,99.99
2022-11-27T00:15:11.360Z,99.99
2022-11-27T00:16:10.393Z,99.99
2022-11-27T00:17:09.223Z,99.99
2022-11-27T00:18:09.424Z,99.99
2022-11-27T00:19:09.198Z,99.99
2022-11-27T00:20:09.201Z,99.99
2022-11-27T00:21:10.980Z,99.99
2022-11-27T00:22:09.180Z,99.99
2022-11-27T00:23:09.349Z,99.99
2022-11-27T00:24:09.160Z,99.99
2022-11-27T00:25:09.227Z,99.99
2022-11-27T00:26:09.238Z,99.99
2022-11-27T00:27:09.169Z,99.99
2022-11-27T00:28:09.314Z,99.99
2022-11-27T00:29:10.082Z,99.99
2022-11-27T00:30:09.084Z,99.99
2022-11-27T00:31:09.122Z,99.99
2022-11-27T00:32:09.197Z,99.99
2022-11-27T00:33:09.295Z,99.99
2022-11-27T00:34:09.088Z,99.99
2022-11-27T00:35:08.993Z,99.99
2022-11-27T00:36:09.012Z,99.99
2022-11-27T00:37:09.911Z,99.99
2022-11-27T00:38:09.731Z,99.99
2022-11-27T00:39:09.100Z,99.99
2022-11-27T00:40:09.026Z,99.99
2022-11-27T00:41:09.037Z,99.99
2022-11-27T00:42:08.951Z,99.99
2022-11-27T00:43:09.108Z,99.99
2022-11-27T00:44:08.941Z,99.99
2022-11-27T00:45:08.956Z,99.99
2022-11-27T00:46:08.895Z,99.99
2022-11-27T00:47:09.014Z,99.99
2022-11-27T00:48:09.885Z,99.99
2022-11-27T00:49:09.784Z,99.99
2022-11-27T00:50:08.966Z,99.99
2022-11-27T00:51:08.867Z,99.99
2022-11-27T00:52:09.038Z,99.99
2022-11-27T00:53:09.042Z,99.99
2022-11-27T00:54:09.017Z,99.99
2022-11-27T00:55:08.956Z,99.99
2022-11-27T00:56:08.960Z,99.99
2022-11-27T00:57:09.740Z,99.99
2022-11-27T00:58:09.413Z,99.99
2022-11-27T00:59:08.709Z,99.99
2022-11-27T01:00:08.781Z,99.99
2022-11-27T01:01:08.697Z,99.99
2022-11-27T01:02:09.816Z,99.99
2022-11-27T01:03:08.710Z,99.99
2022-11-27T01:04:08.636Z,99.99
2022-11-27T01:05:08.650Z,99.99
2022-11-27T01:06:08.604Z,99.99
2022-11-27T01:07:09.629Z,99.99
2022-11-27T01:08:08.574Z,99.99
2022-11-27T01:09:08.646Z,99.99
2022-11-27T01:10:08.550Z,99.99
2022-11-27T01:11:08.620Z,99.99
2022-11-27T01:12:09.040Z,99.99
2022-11-27T01:13:08.522Z,99.99
2022-11-27T01:14:08.492Z,99.99
2022-11-27T01:15:09.231Z,99.99
2022-11-27T01:16:08.535Z,99.99
2022-11-27T01:17:08.692Z,99.99
2022-11-27T01:18:08.447Z,99.99
2022-11-27T01:19:08.448Z,99.99
2022-11-27T01:20:08.480Z,99.99
2022-11-27T01:21:09.386Z,99.99
2022-11-27T01:22:08.590Z,99.99
2022-11-27T01:23:09.298Z,99.99
2022-11-27T01:24:08.373Z,99.99
2022-11-27T01:25:08.385Z,99.99
2022-11-27T01:26:08.357Z,99.99
2022-11-27T01:27:08.552Z,99.99
2022-11-27T01:28:08.382Z,99.99
2022-11-27T01:29:08.322Z,99.99
2022-11-27T01:30:08.293Z,99.99
2022-11-27T01:31:08.333Z,99.99
2022-11-27T01:32:09.419Z,99.99
2022-11-27T01:33:08.292Z,99.99
2022-11-27T01:34:08.308Z,99.99
2022-11-27T01:35:08.249Z,99.99
2022-11-27T01:36:08.219Z,99.99
2022-11-27T01:37:08.437Z,99.99
2022-11-27T01:38:08.187Z,99.99
2022-11-27T01:39:08.207Z,99.99
2022-11-27T01:40:08.174Z,99.99
2022-11-27T01:41:08.195Z,99.99
2022-11-27T01:42:08.344Z,99.99
2022-11-27T01:43:08.153Z,99.99
2022-11-27T01:44:08.135Z,99.99
2022-11-27T01:45:08.121Z,99.99
2022-11-27T01:46:08.170Z,99.99
2022-11-27T01:47:08.304Z,99.99
2022-11-27T01:48:08.070Z,99.99
2022-11-27T01:49:08.089Z,99.99
2022-11-27T01:50:08.040Z,99.99
2022-11-27T01:51:08.060Z,99.99
2022-11-27T01:52:08.021Z,99.99
2022-11-27T01:53:08.298Z,99.99
2022-11-27T01:54:08.033Z,99.99
2022-11-27T01:55:08.009Z,99.99
2022-11-27T01:56:08.005Z,99.99
2022-11-27T01:57:08.025Z,99.99
2022-11-27T01:58:08.666Z,99.99
2022-11-27T01:59:07.963Z,99.99
2022-11-27T02:00:07.922Z,99.99
2022-11-27T02:01:07.917Z,99.99
2022-11-27T02:02:07.917Z,99.99
2022-11-27T02:03:08.176Z,99.99
2022-11-27T02:04:07.873Z,99.99
2022-11-27T02:05:08.629Z,99.99
2022-11-27T02:06:07.888Z,99.99
2022-11-27T02:07:08.686Z,99.99
2022-11-27T02:08:07.840Z,99.99
2022-11-27T02:09:07.830Z,99.99
2022-11-27T02:10:07.789Z,99.99
2022-11-27T02:11:07.796Z,99.99
2022-11-27T02:12:07.766Z,99.99
2022-11-27T02:13:07.968Z,99.99
2022-11-27T02:14:07.738Z,99.99
2022-11-27T02:15:07.758Z,99.99
2022-11-27T02:16:07.790Z,99.99
2022-11-27T02:17:07.728Z,99.99
2022-11-27T02:18:07.886Z,99.99
2022-11-27T02:19:07.694Z,99.99
2022-11-27T02:20:08.425Z,99.99
2022-11-27T02:21:07.694Z,99.99
2022-11-27T02:22:07.643Z,99.99
2022-11-27T02:23:07.934Z,99.99
2022-11-27T02:24:07.622Z,99.99
2022-11-27T02:25:08.362Z,99.99
2022-11-27T02:26:08.533Z,99.99
2022-11-27T02:27:07.601Z,99.99
2022-11-27T02:28:07.768Z,99.99
2022-11-27T02:29:07.570Z,99.99
2022-11-27T02:30:07.547Z,99.99
2022-11-27T02:31:07.601Z,99.67
2022-11-27T02:32:07.517Z,99.05
2022-11-27T02:33:07.724Z,98.84
2022-11-27T02:34:07.498Z,99.01
2022-11-27T02:35:09.085Z,99.11
2022-11-27T02:36:07.466Z,98.80
2022-11-27T02:37:07.527Z,98.59
2022-11-27T02:38:07.647Z,98.17
2022-11-27T02:39:08.393Z,97.86
2022-11-27T02:40:07.464Z,97.65
2022-11-27T02:41:07.463Z,97.44
2022-11-27T02:42:07.398Z,97.44
2022-11-27T02:43:07.622Z,97.61
2022-11-27T02:44:07.382Z,97.71
2022-11-27T02:45:07.420Z,97.71
2022-11-27T02:46:07.385Z,97.50
2022-11-27T02:47:07.350Z,97.19
2022-11-27T02:48:07.519Z,96.88
2022-11-27T02:49:07.338Z,96.78
2022-11-27T02:50:08.008Z,96.67
2022-11-27T02:51:07.317Z,96.67
2022-11-27T02:52:08.033Z,96.78
2022-11-27T02:53:07.635Z,96.88
2022-11-27T02:54:07.244Z,97.09
2022-11-27T02:55:08.157Z,97.09
2022-11-27T02:56:08.065Z,97.19
2022-11-27T02:57:07.253Z,97.09
2022-11-27T02:58:07.400Z,96.82
2022-11-27T02:59:07.212Z,96.82
2022-11-27T03:00:07.173Z,96.92
2022-11-27T03:01:07.211Z,97.24
2022-11-27T03:02:07.184Z,97.34
2022-11-27T03:03:07.479Z,97.24
2022-11-27T03:04:07.129Z,97.44
2022-11-27T03:05:07.148Z,97.44
2022-11-27T03:06:07.115Z,97.44
2022-11-27T03:07:07.098Z,97.55
2022-11-27T03:08:07.295Z,97.44
2022-11-27T03:09:07.077Z,97.55
2022-11-27T03:10:07.047Z,97.65
2022-11-27T03:11:07.115Z,97.61
2022-11-27T03:12:07.026Z,97.50
2022-11-27T03:13:07.231Z,97.50
2022-11-27T03:14:07.003Z,97.40
2022-11-27T03:15:07.063Z,97.19
2022-11-27T03:16:07.088Z,97.24
2022-11-27T03:17:06.993Z,97.34
2022-11-27T03:18:07.153Z,97.55
2022-11-27T03:19:06.971Z,97.44
2022-11-27T03:20:06.921Z,97.44
2022-11-27T03:21:07.669Z,97.65
2022-11-27T03:22:06.914Z,97.75
2022-11-27T03:23:14.005Z,97.75
2022-11-27T03:24:06.876Z,97.81
2022-11-27T03:25:06.898Z,97.92
2022-11-27T03:26:06.854Z,97.81
2022-11-27T03:27:06.873Z,97.30
2022-11-27T03:28:07.023Z,97.30
2022-11-27T03:29:06.830Z,97.40
2022-11-27T03:30:06.801Z,97.30
2022-11-27T03:31:06.821Z,97.50
2022-11-27T03:32:06.779Z,97.61
2022-11-27T03:33:06.971Z,97.25
2022-11-27T03:34:06.751Z,97.09
2022-11-27T03:35:06.760Z,97.04
2022-11-27T03:36:06.728Z,96.88
2022-11-27T03:37:06.748Z,96.88
2022-11-27T03:38:06.905Z,96.98
2022-11-27T03:39:06.716Z,97.09
2022-11-27T03:40:06.678Z,97.19
2022-11-27T03:41:06.686Z,97.30
2022-11-27T03:42:06.655Z,97.40
2022-11-27T03:43:06.856Z,97.30
2022-11-27T03:44:06.625Z,97.30
2022-11-27T03:45:06.631Z,97.30
2022-11-27T03:46:06.647Z,97.40
2022-11-27T03:47:06.674Z,97.30
2022-11-27T03:48:06.773Z,97.19
2022-11-27T03:49:06.600Z,97.04
2022-11-27T03:50:06.553Z,96.94
2022-11-27T03:51:06.579Z,96.83
2022-11-27T03:52:06.558Z,96.83
2022-11-27T03:53:06.740Z,96.94
2022-11-27T03:54:06.506Z,97.04
2022-11-27T03:55:06.518Z,97.04
2022-11-27T03:56:09.954Z,97.04
2022-11-27T03:57:06.496Z,97.30
2022-11-27T03:58:06.655Z,97.40
2022-11-27T03:59:06.457Z,97.45
2022-11-27T04:00:06.433Z,97.56
2022-11-27T04:01:06.436Z,97.67
2022-11-27T04:02:06.499Z,97.45
2022-11-27T04:03:06.626Z,96.94
2022-11-27T04:04:06.458Z,96.79
2022-11-27T04:05:06.401Z,96.27
2022-11-27T04:06:06.361Z,96.17
2022-11-27T04:07:06.372Z,95.96
2022-11-27T04:08:06.534Z,95.86
2022-11-27T04:09:06.353Z,95.75
2022-11-27T04:10:06.301Z,95.65
2022-11-27T04:11:06.327Z,95.65
2022-11-27T04:12:06.280Z,95.50
2022-11-27T04:13:06.500Z,95.40
2022-11-27T04:14:06.267Z,95.19
2022-11-27T04:15:06.248Z,94.98
2022-11-27T04:16:06.264Z,95.03
2022-11-27T04:17:06.246Z,95.23
2022-11-27T04:18:06.398Z,95.40
2022-11-27T04:19:06.223Z,95.61
2022-11-27T04:20:06.174Z,95.40
2022-11-27T04:21:06.179Z,95.09
2022-11-27T04:22:06.143Z,95.29
2022-11-27T04:23:06.356Z,95.40
2022-11-27T04:24:06.123Z,95.40
2022-11-27T04:25:06.129Z,95.40
2022-11-27T04:26:06.100Z,95.40
2022-11-27T04:27:06.110Z,95.40
2022-11-27T04:28:06.279Z,95.50
2022-11-27T04:29:06.069Z,95.50
2022-11-27T04:30:06.060Z,95.40
2022-11-27T04:31:06.119Z,95.29
2022-11-27T04:32:06.022Z,95.29
2022-11-27T04:33:06.236Z,95.15
2022-11-27T04:34:05.996Z,94.94
2022-11-27T04:35:06.013Z,94.73
2022-11-27T04:36:05.966Z,94.42
2022-11-27T04:37:05.973Z,94.32
2022-11-27T04:38:06.142Z,94.32
2022-11-27T04:39:05.960Z,94.42
2022-11-27T04:40:05.914Z,94.42
2022-11-27T04:41:05.933Z,94.32
2022-11-27T04:42:05.889Z,94.32
2022-11-27T04:43:06.089Z,94.32
2022-11-27T04:44:05.862Z,94.32
2022-11-27T04:45:05.860Z,94.26
2022-11-27T04:46:05.838Z,94.36
2022-11-27T04:47:05.941Z,94.57
2022-11-27T04:48:06.006Z,94.78
2022-11-27T04:49:05.810Z,94.84
2022-11-27T04:50:05.779Z,94.84
2022-11-27T04:51:05.785Z,94.84
2022-11-27T04:52:05.755Z,94.94
2022-11-27T04:53:05.966Z,94.94
2022-11-27T04:54:05.726Z,94.84
2022-11-27T04:55:05.745Z,94.84
2022-11-27T04:56:05.706Z,94.73
2022-11-27T04:57:05.721Z,94.63
2022-11-27T04:58:05.873Z,94.73
2022-11-27T04:59:05.673Z,94.63
2022-11-27T05:00:05.650Z,94.73
2022-11-27T05:01:05.801Z,94.73
2022-11-27T05:02:05.622Z,94.68
2022-11-27T05:03:05.880Z,94.58
2022-11-27T05:04:05.610Z,94.48
2022-11-27T05:05:05.580Z,93.75
2022-11-27T05:06:05.600Z,92.51
2022-11-27T05:07:05.555Z,92.10
2022-11-27T05:08:05.749Z,92.20
2022-11-27T05:09:05.526Z,92.30
2022-11-27T05:10:05.527Z,92.41
2022-11-27T05:11:05.504Z,92.20
2022-11-27T05:12:05.698Z,92.10
2022-11-27T05:13:05.475Z,91.78
2022-11-27T05:14:05.474Z,91.89
2022-11-27T05:15:05.455Z,91.99
2022-11-27T05:16:05.541Z,92.20
2022-11-27T05:17:05.624Z,92.10
2022-11-27T05:18:05.422Z,91.89
2022-11-27T05:19:05.513Z,91.99
2022-11-27T05:20:05.392Z,92.20
2022-11-27T05:21:05.369Z,92.30
2022-11-27T05:22:05.589Z,92.30
2022-11-27T05:23:05.342Z,92.20
2022-11-27T05:24:05.357Z,92.10
2022-11-27T05:25:05.333Z,92.10
2022-11-27T05:26:05.321Z,91.99
2022-11-27T05:27:05.489Z,91.68
2022-11-27T05:28:05.289Z,91.47
2022-11-27T05:29:05.264Z,91.47
2022-11-27T05:30:05.279Z,91.37
2022-11-27T05:31:05.346Z,91.27
2022-11-27T05:32:05.447Z,91.27
2022-11-27T05:33:05.214Z,91.27
2022-11-27T05:34:05.223Z,91.47
2022-11-27T05:35:05.182Z,91.78
2022-11-27T05:36:05.202Z,91.47
2022-11-27T05:37:05.354Z,91.47
2022-11-27T05:38:05.161Z,91.58
2022-11-27T05:39:05.133Z,91.37
2022-11-27T05:40:05.137Z,91.58
2022-11-27T05:41:05.107Z,91.99
2022-11-27T05:42:05.319Z,92.30
2022-11-27T05:43:05.116Z,92.41
2022-11-27T05:44:05.117Z,92.61
2022-11-27T05:45:05.046Z,92.82
2022-11-27T05:46:05.058Z,93.02
2022-11-27T05:47:05.304Z,93.13
2022-11-27T05:48:05.044Z,93.33
2022-11-27T05:49:04.996Z,93.44
2022-11-27T05:50:05.018Z,93.54
2022-11-27T05:51:04.974Z,93.54
2022-11-27T05:52:05.013Z,93.65
2022-11-27T05:53:04.952Z,93.54
2022-11-27T05:54:04.950Z,93.65
2022-11-27T05:55:04.926Z,93.59
2022-11-27T05:56:04.931Z,93.59
2022-11-27T05:57:05.099Z,93.80
2022-11-27T05:58:04.917Z,93.90
2022-11-27T05:59:04.867Z,94.11
2022-11-27T06:00:04.869Z,93.80
2022-11-27T06:01:04.851Z,93.28
2022-11-27T06:02:05.101Z,92.97
2022-11-27T06:03:04.928Z,92.97
2022-11-27T06:04:04.835Z,93.07
2022-11-27T06:05:04.786Z,92.86
2022-11-27T06:06:04.787Z,92.97
2022-11-27T06:07:04.957Z,92.97
2022-11-27T06:08:04.765Z,92.86
2022-11-27T06:09:08.067Z,92.86
2022-11-27T06:10:05.750Z,92.76
2022-11-27T06:11:04.711Z,92.61
2022-11-27T06:12:04.902Z,92.30
2022-11-27T06:13:04.681Z,92.20
2022-11-27T06:14:04.702Z,92.10
2022-11-27T06:15:04.660Z,91.99
2022-11-27T06:16:04.653Z,91.89
2022-11-27T06:17:04.841Z,91.41
2022-11-27T06:18:04.646Z,91.41
2022-11-27T06:19:04.600Z,91.31
2022-11-27T06:20:04.580Z,91.62
2022-11-27T06:21:04.584Z,91.93
2022-11-27T06:22:04.776Z,91.62
2022-11-27T06:23:04.555Z,91.62
2022-11-27T06:24:04.557Z,91.72
2022-11-27T06:25:04.484Z,91.83
2022-11-27T06:26:04.491Z,91.72
2022-11-27T06:27:04.653Z,91.83
2022-11-27T06:28:04.473Z,92.14
2022-11-27T06:29:04.421Z,92.45
2022-11-27T06:30:04.422Z,92.66
2022-11-27T06:31:04.413Z,92.76
2022-11-27T06:32:04.786Z,92.86
2022-11-27T06:33:04.370Z,92.86
2022-11-27T06:34:04.371Z,93.07
2022-11-27T06:35:04.340Z,93.07
2022-11-27T06:36:04.374Z,92.76
2022-11-27T06:37:05.447Z,92.45
2022-11-27T06:38:04.318Z,92.45
2022-11-27T06:39:04.297Z,92.45
2022-11-27T06:40:04.316Z,92.66
2022-11-27T06:41:04.274Z,92.86
2022-11-27T06:42:04.516Z,93.18
2022-11-27T06:43:04.235Z,93.28
2022-11-27T06:44:04.244Z,93.59
2022-11-27T06:45:04.211Z,93.80
2022-11-27T06:46:04.338Z,93.90
2022-11-27T06:47:04.382Z,93.70
2022-11-27T06:48:04.206Z,93.84
2022-11-27T06:49:04.162Z,93.84
2022-11-27T06:50:04.171Z,94.05
2022-11-27T06:51:04.332Z,94.05
2022-11-27T06:52:04.130Z,94.05
2022-11-27T06:53:04.108Z,94.11
2022-11-27T06:54:04.134Z,94.01
2022-11-27T06:55:04.079Z,93.90
2022-11-27T06:56:04.088Z,93.49
2022-11-27T06:57:04.255Z,93.18
2022-11-27T06:58:04.074Z,92.86
2022-11-27T06:59:04.026Z,92.76
2022-11-27T07:00:04.026Z,92.55
2022-11-27T07:01:04.054Z,92.55
2022-11-27T07:02:04.310Z,92.35
2022-11-27T07:03:03.974Z,92.45
2022-11-27T07:04:03.973Z,92.35
2022-11-27T07:05:03.942Z,92.24
2022-11-27T07:06:03.963Z,92.14
2022-11-27T07:07:04.119Z,92.20
2022-11-27T07:08:03.989Z,92.20
2022-11-27T07:09:03.892Z,92.10
2022-11-27T07:10:03.909Z,91.89
2022-11-27T07:11:03.869Z,91.78
2022-11-27T07:12:04.070Z,91.68
2022-11-27T07:13:03.838Z,91.58
2022-11-27T07:14:03.860Z,91.47
2022-11-27T07:15:04.574Z,91.37
2022-11-27T07:16:03.860Z,91.47
2022-11-27T07:17:03.986Z,91.58
2022-11-27T07:18:03.807Z,91.58
2022-11-27T07:19:03.762Z,91.58
2022-11-27T07:20:03.774Z,91.58
2022-11-27T07:21:03.737Z,91.37
2022-11-27T07:22:03.944Z,91.37
2022-11-27T07:23:03.710Z,91.93
2022-11-27T07:24:03.724Z,92.55
2022-11-27T07:25:03.681Z,92.97
2022-11-27T07:26:03.681Z,93.28
2022-11-27T07:27:03.851Z,93.28
2022-11-27T07:28:03.670Z,93.28
2022-11-27T07:29:03.629Z,93.28
2022-11-27T07:30:03.640Z,93.28
2022-11-27T07:31:03.607Z,93.28
2022-11-27T07:32:03.964Z,93.07
2022-11-27T07:33:03.578Z,93.07
2022-11-27T07:34:06.949Z,92.86
2022-11-27T07:35:04.625Z,92.76
2022-11-27T07:36:03.565Z,92.76
2022-11-27T07:37:03.722Z,92.97
2022-11-27T07:38:03.545Z,93.18
2022-11-27T07:39:03.502Z,93.38
2022-11-27T07:40:03.823Z,93.28
2022-11-27T07:41:03.475Z,93.28
2022-11-27T07:42:30.900Z,93.49
2022-11-27T07:43:04.449Z,93.18
2022-11-27T07:44:03.463Z,92.86
2022-11-27T07:45:03.428Z,92.66
2022-11-27T07:46:03.486Z,92.30
2022-11-27T07:47:03.590Z,92.10
2022-11-27T07:48:03.414Z,92.10
2022-11-27T07:49:03.369Z,92.10
2022-11-27T07:50:03.370Z,91.99
2022-11-27T07:51:03.345Z,91.89
2022-11-27T07:52:03.557Z,91.89
2022-11-27T07:53:03.318Z,91.99
2022-11-27T07:54:03.336Z,91.99
2022-11-27T07:55:03.292Z,92.20
2022-11-27T07:56:03.295Z,92.16
2022-11-27T07:57:03.467Z,92.05
2022-11-27T07:58:03.264Z,91.95
2022-11-27T07:59:03.240Z,91.85
2022-11-27T08:00:03.253Z,91.74
2022-11-27T08:01:03.266Z,91.74
2022-11-27T08:02:03.420Z,91.33
2022-11-27T08:03:03.181Z,91.22
2022-11-27T08:04:03.194Z,91.12
2022-11-27T08:05:06.857Z,91.12
2022-11-27T08:06:04.160Z,91.33
2022-11-27T08:07:03.330Z,91.64
2022-11-27T08:08:03.261Z,91.64
2022-11-27T08:09:03.107Z,91.53
2022-11-27T08:10:03.125Z,91.53
2022-11-27T08:11:03.278Z,91.53
2022-11-27T08:12:03.084Z,91.33
2022-11-27T08:13:03.082Z,91.08
2022-11-27T08:14:03.089Z,90.97
2022-11-27T08:15:03.032Z,90.87
2022-11-27T08:16:03.282Z,90.77
2022-11-27T08:17:03.003Z,90.77
2022-11-27T08:18:03.003Z,90.77
2022-11-27T08:19:02.982Z,90.77
2022-11-27T08:20:03.012Z,90.87
2022-11-27T08:21:03.152Z,90.77
2022-11-27T08:22:02.961Z,90.77
2022-11-27T08:23:03.359Z,90.66
2022-11-27T08:24:02.931Z,90.77
2022-11-27T08:25:02.908Z,90.66
2022-11-27T08:26:03.098Z,90.77
2022-11-27T08:27:02.876Z,90.77
2022-11-27T08:28:02.880Z,90.77
2022-11-27T08:29:02.847Z,90.35
2022-11-27T08:30:02.864Z,90.35
2022-11-27T08:31:03.025Z,90.45
2022-11-27T08:32:02.870Z,90.77
2022-11-27T08:33:02.795Z,90.87
2022-11-27T08:34:02.803Z,90.97
2022-11-27T08:35:02.771Z,91.08
2022-11-27T08:36:02.793Z,91.08
2022-11-27T08:37:02.942Z,90.66
2022-11-27T08:38:02.767Z,90.56
2022-11-27T08:39:02.718Z,90.56
2022-11-27T08:40:02.741Z,90.35
2022-11-27T08:41:02.700Z,90.45
2022-11-27T08:42:02.889Z,90.45
2022-11-27T08:43:02.667Z,90.31
2022-11-27T08:44:06.692Z,90.10
2022-11-27T08:45:03.638Z,89.89
2022-11-27T08:46:02.706Z,90.20
2022-11-27T08:47:02.821Z,90.00
2022-11-27T08:48:02.623Z,89.79
2022-11-27T08:49:02.586Z,89.58
2022-11-27T08:50:02.759Z,88.65
2022-11-27T08:51:02.577Z,88.55
2022-11-27T08:52:02.776Z,88.65
2022-11-27T08:53:02.539Z,88.55
2022-11-27T08:54:02.612Z,88.48
2022-11-27T08:55:02.516Z,88.65
2022-11-27T08:56:02.512Z,88.96
2022-11-27T08:57:02.681Z,89.00
2022-11-27T08:58:02.504Z,89.00
2022-11-27T08:59:02.459Z,88.79
2022-11-27T09:00:02.479Z,89.11
2022-11-27T09:01:02.567Z,89.52
2022-11-27T09:02:02.656Z,90.14
2022-11-27T09:03:02.457Z,90.70
2022-11-27T09:04:02.545Z,91.02
2022-11-27T09:05:02.422Z,91.22
2022-11-27T09:06:02.408Z,91.33
2022-11-27T09:07:02.561Z,91.64
2022-11-27T09:08:02.486Z,91.85
2022-11-27T09:09:02.335Z,92.05
2022-11-27T09:10:02.375Z,92.16
2022-11-27T09:11:02.304Z,92.16
2022-11-27T09:12:02.521Z,92.05
2022-11-27T09:13:02.323Z,92.01
2022-11-27T09:14:02.301Z,91.80
2022-11-27T09:15:02.263Z,91.70
2022-11-27T09:16:02.309Z,91.60
2022-11-27T09:17:02.501Z,91.39
2022-11-27T09:18:02.230Z,91.08
2022-11-27T09:19:02.219Z,90.97
2022-11-27T09:20:02.189Z,91.28
2022-11-27T09:21:02.207Z,91.39
2022-11-27T09:22:02.405Z,91.39
2022-11-27T09:23:02.197Z,91.49
2022-11-27T09:24:09.222Z,91.60
2022-11-27T09:25:02.151Z,91.28
2022-11-27T09:26:02.129Z,91.28
2022-11-27T09:27:02.319Z,91.18
2022-11-27T09:28:03.030Z,91.28
2022-11-27T09:29:02.088Z,91.24
2022-11-27T09:30:02.101Z,91.24
2022-11-27T09:31:02.072Z,91.24
2022-11-27T09:32:02.309Z,91.03
2022-11-27T09:33:02.061Z,91.14
2022-11-27T09:34:02.025Z,91.14
2022-11-27T09:35:02.080Z,90.93
2022-11-27T09:36:02.037Z,90.93
2022-11-27T09:37:02.184Z,90.72
2022-11-27T09:38:01.968Z,90.72
2022-11-27T09:39:01.963Z,90.62
2022-11-27T09:40:01.938Z,89.69
2022-11-27T09:41:03.381Z,89.89
2022-11-27T09:42:02.105Z,90.20
2022-11-27T09:43:01.931Z,89.89
2022-11-27T09:44:01.925Z,89.75
2022-11-27T09:45:01.902Z,89.96
2022-11-27T09:46:02.062Z,89.23
2022-11-27T09:47:02.077Z,88.61
2022-11-27T09:48:01.840Z,88.30
2022-11-27T09:49:01.877Z,88.40
2022-11-27T09:50:01.807Z,88.57
2022-11-27T09:51:01.826Z,88.57
2022-11-27T09:52:02.008Z,88.57
2022-11-27T09:53:01.776Z,88.67
2022-11-27T09:54:01.824Z,88.98
2022-11-27T09:55:01.761Z,89.19
2022-11-27T09:56:01.927Z,89.19
2022-11-27T09:57:01.794Z,88.98
2022-11-27T09:58:01.734Z,88.98
2022-11-27T09:59:01.715Z,88.98
2022-11-27T10:00:01.684Z,88.71
2022-11-27T10:01:01.708Z,88.78
2022-11-27T10:02:01.940Z,88.92
2022-11-27T10:03:01.831Z,89.13
2022-11-27T10:04:01.632Z,89.23
2022-11-27T10:05:17.580Z,89.34
2022-11-27T10:06:02.605Z,89.54
2022-11-27T10:07:01.798Z,89.75
2022-11-27T10:08:06.356Z,89.65
2022-11-27T10:09:02.590Z,89.03
2022-11-27T10:10:01.554Z,88.92
2022-11-27T10:11:01.560Z,88.92
2022-11-27T10:12:01.729Z,88.82
2022-11-27T10:13:01.617Z,88.57
2022-11-27T10:14:01.541Z,88.46
2022-11-27T10:15:01.517Z,88.16
2022-11-27T10:16:01.479Z,87.81
2022-11-27T10:17:01.758Z,87.39
2022-11-27T10:18:01.451Z,87.08
2022-11-27T10:19:01.452Z,86.52
2022-11-27T10:20:01.430Z,86.21
2022-11-27T10:21:01.460Z,85.60
2022-11-27T10:22:01.797Z,85.18
2022-11-27T10:23:01.400Z,85.39
2022-11-27T10:24:01.373Z,85.49
2022-11-27T10:25:01.394Z,85.80
2022-11-27T10:26:02.106Z,86.32
2022-11-27T10:27:01.560Z,86.73
2022-11-27T10:28:01.347Z,86.32
2022-11-27T10:29:01.338Z,86.11
2022-11-27T10:30:02.251Z,86.11
2022-11-27T10:31:01.317Z,86.42
2022-11-27T10:32:01.545Z,86.11
2022-11-27T10:33:01.329Z,85.70
2022-11-27T10:34:01.243Z,85.39
2022-11-27T10:35:01.255Z,85.28
2022-11-27T10:36:01.256Z,85.24
2022-11-27T10:37:01.440Z,85.45
2022-11-27T10:38:06.511Z,85.18
2022-11-27T10:39:02.193Z,84.83
2022-11-27T10:40:01.176Z,84.83
2022-11-27T10:41:01.171Z,84.11
2022-11-27T10:42:01.362Z,83.53
2022-11-27T10:43:01.178Z,83.42
2022-11-27T10:44:01.849Z,83.42
2022-11-27T10:45:01.151Z,83.63
2022-11-27T10:46:01.176Z,83.53
2022-11-27T10:47:01.337Z,83.63
2022-11-27T10:48:01.086Z,83.73
2022-11-27T10:49:01.077Z,83.73
2022-11-27T10:50:01.057Z,83.01
2022-11-27T10:51:01.073Z,83.01
2022-11-27T10:52:01.242Z,83.22
2022-11-27T10:53:01.018Z,83.53
2022-11-27T10:54:01.003Z,83.42
2022-11-27T10:55:00.990Z,83.22
2022-11-27T10:56:00.962Z,82.70
2022-11-27T10:57:01.162Z,83.11
2022-11-27T10:58:00.952Z,83.42
2022-11-27T10:59:00.974Z,83.42
2022-11-27T11:00:00.916Z,83.22
2022-11-27T11:01:01.018Z,82.90
2022-11-27T11:02:01.159Z,82.66
2022-11-27T11:03:00.890Z,82.45
2022-11-27T11:04:00.859Z,81.94
2022-11-27T11:05:24.502Z,82.31
2022-11-27T11:06:19.978Z,81.59
2022-11-27T11:07:02.037Z,80.76
2022-11-27T11:08:00.856Z,80.32
2022-11-27T11:09:01.509Z,80.32
2022-11-27T11:10:01.555Z,80.93
2022-11-27T11:11:00.804Z,80.62
2022-11-27T11:12:01.049Z,80.11
2022-11-27T11:13:00.774Z,80.00
2022-11-27T11:14:00.746Z,80.11
2022-11-27T11:15:00.917Z,80.11
2022-11-27T11:16:00.710Z,80.21
2022-11-27T11:17:00.944Z,79.80
2022-11-27T11:18:00.696Z,79.49
2022-11-27T11:19:00.701Z,79.25
2022-11-27T11:20:00.664Z,79.38
2022-11-27T11:21:00.678Z,78.97
2022-11-27T11:22:00.840Z,78.56
2022-11-27T11:23:00.649Z,78.87
2022-11-27T11:24:00.609Z,78.97
2022-11-27T11:25:00.607Z,79.28
2022-11-27T11:26:00.575Z,79.59
2022-11-27T11:27:01.448Z,80.00
2022-11-27T11:28:00.609Z,80.21
2022-11-27T11:29:00.585Z,80.42
2022-11-27T11:30:00.555Z,80.11
2022-11-27T11:31:00.551Z,79.59
2022-11-27T11:32:00.768Z,79.49
2022-11-27T11:33:00.507Z,79.38
2022-11-27T11:34:00.484Z,79.69
2022-11-27T11:35:01.378Z,80.00
2022-11-27T11:36:00.450Z,79.97
2022-11-27T11:37:00.675Z,79.97
2022-11-27T11:38:00.471Z,79.76
2022-11-27T11:39:00.487Z,79.66
2022-11-27T11:40:00.392Z,79.55
2022-11-27T11:41:00.396Z,79.14
2022-11-27T11:42:00.570Z,79.14
2022-11-27T11:43:00.449Z,79.45
2022-11-27T11:44:00.362Z,80.07
2022-11-27T11:45:00.362Z,80.24
2022-11-27T11:46:00.402Z,80.55
2022-11-27T11:47:00.528Z,80.55
2022-11-27T11:48:00.297Z,80.65
2022-11-27T11:49:00.325Z,80.86
2022-11-27T11:50:00.317Z,81.17
2022-11-27T11:51:00.282Z,81.58
2022-11-27T11:52:00.435Z,81.82
2022-11-27T11:53:00.264Z,81.82
2022-11-27T11:54:00.302Z,82.14
2022-11-27T11:55:00.246Z,82.14
2022-11-27T11:56:00.181Z,81.93
2022-11-27T11:57:00.402Z,82.14
2022-11-27T11:58:00.165Z,81.62
2022-11-27T11:59:00.170Z,81.10
2022-11-27T12:00:00.131Z,81.31
2022-11-27T12:01:27.623Z,81.62
2022-11-27T12:02:01.363Z,81.51
2022-11-27T12:03:00.149Z,81.41
2022-11-27T12:04:00.171Z,81.72
2022-11-27T12:05:00.211Z,81.93
2022-11-27T12:06:01.008Z,81.82
2022-11-27T12:07:00.266Z,81.51
2022-11-27T12:08:00.099Z,81.72
2022-11-27T12:09:00.376Z,81.51
2022-11-27T12:10:00.110Z,81.62
2022-11-27T12:11:00.978Z,81.51
2022-11-27T12:12:00.517Z,81.41
2022-11-27T12:13:00.013Z,81.41
2022-11-27T12:13:59.942Z,81.72
2022-11-27T12:14:59.971Z,81.93
2022-11-27T12:15:59.921Z,81.96
2022-11-27T12:17:00.186Z,82.07
2022-11-27T12:17:59.922Z,81.86
2022-11-27T12:18:59.912Z,82.07
2022-11-27T12:19:59.927Z,82.38
2022-11-27T12:20:59.889Z,82.38
2022-11-27T12:22:00.058Z,82.17
2022-11-27T12:22:59.863Z,82.17
2022-11-27T12:23:59.875Z,81.76
2022-11-27T12:24:59.875Z,81.62
2022-11-27T12:25:59.836Z,81.72
2022-11-27T12:27:00.083Z,82.34
2022-11-27T12:27:59.807Z,82.14
2022-11-27T12:28:59.797Z,83.06
2022-11-27T12:29:59.744Z,82.14
2022-11-27T12:30:59.820Z,82.45
2022-11-27T12:32:00.020Z,83.17
2022-11-27T12:32:59.752Z,84.09
2022-11-27T12:33:59.713Z,83.89
2022-11-27T12:34:59.702Z,83.54
2022-11-27T12:35:59.665Z,82.82
2022-11-27T12:36:59.897Z,82.30
2022-11-27T12:37:59.696Z,81.89
2022-11-27T12:38:59.656Z,81.89
2022-11-27T12:39:59.627Z,82.10
2022-11-27T12:40:59.624Z,82.14
2022-11-27T12:41:59.899Z,82.24
2022-11-27T12:42:59.610Z,81.82
2022-11-27T12:43:59.549Z,82.03
2022-11-27T12:44:59.587Z,82.34
2022-11-27T12:45:59.592Z,82.24
2022-11-27T12:46:59.786Z,82.65
2022-11-27T12:47:59.676Z,82.07
2022-11-27T12:48:59.524Z,82.59
2022-11-27T12:49:59.529Z,83.00
2022-11-27T12:50:59.591Z,82.59
2022-11-27T12:51:59.681Z,82.55